Time;durP1;ratioP1;P1;durP2;ratioP2;P2;SDS_P1;SDS_P2;PMS_P1;PMS_P2;Temp;Humidity;BMP_temperature;BMP_pressure;BME280_temperature;BME280_humidity;BME280_pressure;Samples;Min_cycle;Max_cycle;Signal;HPM_P1;HPM_P2
2021/12/31 00:00:46;;;;;;;9.82;7.13;;;;;;;;;;5051343;28;20041;-70
2021/12/31 00:03:12;;;;;;;6.43;5.72;;;;;;;;;;5056786;28;20186;-70
2021/12/31 00:05:38;;;;;;;13.30;6.85;;;;;;;;;;5052590;28;20051;-69
2021/12/31 00:08:04;;;;;;;8.35;6.28;;;;;;;;;;5052526;28;20040;-69
2021/12/31 00:10:30;;;;;;;8.18;6.13;;;;;;;;;;5056123;28;20054;-68
2021/12/31 00:12:56;;;;;;;6.90;5.57;;;;;;;;;;5053186;28;20145;-68
2021/12/31 00:15:22;;;;;;;5.90;5.30;;;;;;;;;;5057637;28;20041;-68
2021/12/31 00:17:48;;;;;;;9.02;5.50;;;;;;;;;;5052667;28;20518;-68
2021/12/31 00:20:17;;;;;;;6.70;5.32;;;;;;;;;;5053125;28;20037;-68
2021/12/31 00:25:29;;;;;;;9.27;7.57;;;;;;;;;;5053081;28;20052;-68
2021/12/31 00:27:55;;;;;;;7.40;5.30;;;;;;;;;;5057785;28;20496;-67
2021/12/31 00:30:21;;;;;;;6.50;5.78;;;;;;;;;;5053328;28;20047;-69
2021/12/31 00:32:47;;;;;;;10.82;5.60;;;;;;;;;;5054019;28;20032;-68
2021/12/31 00:35:13;;;;;;;8.57;5.47;;;;;;;;;;5055214;28;20416;-69
2021/12/31 00:37:39;;;;;;;5.72;5.13;;;;;;;;;;5050721;28;20068;-68
2021/12/31 00:40:11;;;;;;;7.47;5.65;;;;;;;;;;5058152;28;20483;-68
2021/12/31 00:42:37;;;;;;;7.75;5.63;;;;;;;;;;5051693;28;20112;-69
2021/12/31 00:45:05;;;;;;;8.45;6.18;;;;;;;;;;5058540;28;20045;-68
2021/12/31 00:47:30;;;;;;;6.50;5.82;;;;;;;;;;5052963;28;20477;-68
2021/12/31 00:49:56;;;;;;;9.02;5.60;;;;;;;;;;5051569;28;20110;-70
2021/12/31 00:52:22;;;;;;;7.43;6.03;;;;;;;;;;5057406;28;20365;-69
2021/12/31 00:54:47;;;;;;;7.82;6.32;;;;;;;;;;5051132;28;20068;-69
2021/12/31 00:57:13;;;;;;;8.57;6.28;;;;;;;;;;5055553;28;20045;-68
2021/12/31 00:59:40;;;;;;;6.45;5.85;;;;;;;;;;5052893;28;20094;-70
2021/12/31 01:02:06;;;;;;;12.48;6.45;;;;;;;;;;5050851;28;20060;-68
2021/12/31 01:04:35;;;;;;;6.70;6.00;;;;;;;;;;5058234;28;20114;-69
2021/12/31 01:07:01;;;;;;;7.82;6.75;;;;;;;;;;5050387;28;20393;-67
2021/12/31 01:09:28;;;;;;;9.18;7.05;;;;;;;;;;5039915;28;20040;-69
2021/12/31 01:11:56;;;;;;;8.30;6.32;;;;;;;;;;5054588;28;20043;-69
2021/12/31 01:14:36;;;;;;;9.82;6.95;;;;;;;;;;5054062;28;20449;-69
2021/12/31 01:17:05;;;;;;;9.27;5.70;;;;;;;;;;5051804;28;20547;-69
2021/12/31 01:19:45;;;;;;;9.65;6.28;;;;;;;;;;5052446;28;20043;-70
2021/12/31 01:22:11;;;;;;;8.15;6.65;;;;;;;;;;5053379;28;20446;-70
2021/12/31 01:24:37;;;;;;;9.48;6.45;;;;;;;;;;5050841;28;20040;-68
2021/12/31 01:27:02;;;;;;;8.90;6.13;;;;;;;;;;5055486;28;20119;-70
2021/12/31 01:29:28;;;;;;;7.18;5.72;;;;;;;;;;5052563;28;20040;-68
2021/12/31 01:31:55;;;;;;;6.72;5.90;;;;;;;;;;5051489;28;20033;-69
2021/12/31 01:34:23;;;;;;;6.57;5.57;;;;;;;;;;5055592;28;20041;-68
2021/12/31 01:36:49;;;;;;;8.15;6.07;;;;;;;;;;5052692;28;20036;-68
2021/12/31 01:39:15;;;;;;;7.38;5.68;;;;;;;;;;5049617;28;20125;-66
2021/12/31 01:41:41;;;;;;;6.18;5.50;;;;;;;;;;5055419;28;20476;-66
2021/12/31 01:44:07;;;;;;;7.18;5.78;;;;;;;;;;5049313;28;20036;-68
2021/12/31 01:46:35;;;;;;;9.35;5.55;;;;;;;;;;5055841;28;20131;-68
2021/12/31 01:49:03;;;;;;;7.32;5.60;;;;;;;;;;5050883;28;20036;-69
2021/12/31 01:51:29;;;;;;;7.60;5.38;;;;;;;;;;5056416;28;20041;-68
2021/12/31 01:53:55;;;;;;;6.68;5.97;;;;;;;;;;5053375;28;20115;-69
2021/12/31 01:56:22;;;;;;;11.10;6.30;;;;;;;;;;5048115;28;20123;-67
2021/12/31 01:58:50;;;;;;;9.63;6.22;;;;;;;;;;5055714;28;20086;-68
2021/12/31 02:01:16;;;;;;;8.98;5.75;;;;;;;;;;5050490;28;20040;-69
2021/12/31 02:03:41;;;;;;;8.02;6.43;;;;;;;;;;5055497;28;20060;-69
2021/12/31 02:06:07;;;;;;;7.07;6.00;;;;;;;;;;5054745;28;20048;-68
2021/12/31 02:08:33;;;;;;;8.07;6.50;;;;;;;;;;5048522;28;20134;-69
2021/12/31 02:10:58;;;;;;;8.20;6.70;;;;;;;;;;5057978;28;20119;-68
2021/12/31 02:13:25;;;;;;;9.38;7.70;;;;;;;;;;5051524;28;20135;-68
2021/12/31 02:15:51;;;;;;;9.23;6.93;;;;;;;;;;5054766;28;20048;-68
2021/12/31 02:18:18;;;;;;;8.55;6.65;;;;;;;;;;5052912;28;20045;-68
2021/12/31 02:20:46;;;;;;;10.38;7.25;;;;;;;;;;5048803;28;20044;-69
2021/12/31 02:23:20;;;;;;;8.57;6.70;;;;;;;;;;5056928;28;20120;-69
2021/12/31 02:25:46;;;;;;;9.63;6.38;;;;;;;;;;5049854;28;20047;-68
2021/12/31 02:28:12;;;;;;;9.88;6.55;;;;;;;;;;5054941;28;20040;-70
2021/12/31 02:30:38;;;;;;;8.27;6.25;;;;;;;;;;5051498;28;20041;-70
2021/12/31 02:33:04;;;;;;;8.00;5.88;;;;;;;;;;5051462;28;20032;-68
2021/12/31 02:35:33;;;;;;;7.15;6.32;;;;;;;;;;5055272;28;20500;-69
2021/12/31 02:37:59;;;;;;;7.50;6.82;;;;;;;;;;5049960;28;20090;-67
2021/12/31 02:40:28;;;;;;;8.40;5.72;;;;;;;;;;5056499;28;20063;-69
2021/12/31 02:42:53;;;;;;;8.50;6.13;;;;;;;;;;5051622;28;20041;-69
2021/12/31 02:45:21;;;;;;;10.82;7.20;;;;;;;;;;5052761;28;20473;-69
2021/12/31 02:47:47;;;;;;;8.40;7.07;;;;;;;;;;5054835;28;20048;-69
2021/12/31 02:50:15;;;;;;;7.78;5.78;;;;;;;;;;5058376;28;20037;-67
2021/12/31 02:52:42;;;;;;;6.65;5.70;;;;;;;;;;5054001;28;20348;-69
2021/12/31 02:55:10;;;;;;;9.30;5.95;;;;;;;;;;5050642;28;20037;-70
2021/12/31 02:57:38;;;;;;;7.82;6.15;;;;;;;;;;5051474;28;20453;-70
2021/12/31 03:00:04;;;;;;;7.78;6.30;;;;;;;;;;5054211;28;20531;-69
2021/12/31 03:02:30;;;;;;;6.72;5.43;;;;;;;;;;5050064;28;20051;-69
2021/12/31 03:04:56;;;;;;;6.10;5.50;;;;;;;;;;5057583;28;20040;-67
2021/12/31 03:07:22;;;;;;;6.70;6.03;;;;;;;;;;5051559;28;20045;-69
2021/12/31 03:09:50;;;;;;;7.25;5.38;;;;;;;;;;5049694;28;20033;-67
2021/12/31 03:12:16;;;;;;;7.18;5.90;;;;;;;;;;5051308;28;20052;-70
2021/12/31 03:14:44;;;;;;;9.73;6.07;;;;;;;;;;5047988;28;20489;-70
2021/12/31 03:17:10;;;;;;;8.65;6.50;;;;;;;;;;5053097;28;20042;-67
2021/12/31 03:19:36;;;;;;;6.45;5.85;;;;;;;;;;5049886;28;20037;-68
2021/12/31 03:22:02;;;;;;;8.00;5.82;;;;;;;;;;5044141;28;20383;-70
2021/12/31 03:24:28;;;;;;;7.55;6.10;;;;;;;;;;5052632;28;20127;-70
2021/12/31 03:26:54;;;;;;;9.82;6.10;;;;;;;;;;5053786;28;20509;-69
2021/12/31 03:29:20;;;;;;;8.35;7.05;;;;;;;;;;5056928;28;20077;-67
2021/12/31 03:31:45;;;;;;;7.88;5.70;;;;;;;;;;5036914;28;20400;-69
2021/12/31 03:34:13;;;;;;;9.27;6.55;;;;;;;;;;5052504;28;20052;-70
2021/12/31 03:36:39;;;;;;;11.43;6.70;;;;;;;;;;5056772;28;20126;-69
2021/12/31 03:39:05;;;;;;;6.65;5.82;;;;;;;;;;5052397;28;20068;-68
2021/12/31 03:41:31;;;;;;;6.47;5.85;;;;;;;;;;5058524;28;20516;-69
2021/12/31 03:43:56;;;;;;;8.18;6.22;;;;;;;;;;5055758;28;20044;-68
2021/12/31 03:46:22;;;;;;;7.60;6.35;;;;;;;;;;5055006;28;20041;-68
2021/12/31 03:48:48;;;;;;;8.05;6.18;;;;;;;;;;5058574;28;20116;-69
2021/12/31 03:51:13;;;;;;;7.22;6.35;;;;;;;;;;5051363;28;20036;-69
2021/12/31 03:53:39;;;;;;;7.75;6.30;;;;;;;;;;5058682;28;20040;-69
2021/12/31 03:56:05;;;;;;;10.18;5.95;;;;;;;;;;5055402;28;20315;-68
2021/12/31 03:58:31;;;;;;;7.00;6.03;;;;;;;;;;5055709;28;20056;-68
2021/12/31 04:00:56;;;;;;;6.40;5.80;;;;;;;;;;5056697;28;20037;-69
2021/12/31 04:03:22;;;;;;;8.15;5.65;;;;;;;;;;5050829;28;20523;-66
2021/12/31 04:05:50;;;;;;;6.30;5.38;;;;;;;;;;5059225;28;20045;-70
2021/12/31 04:08:15;;;;;;;7.38;5.65;;;;;;;;;;5055667;28;20041;-69
2021/12/31 04:10:41;;;;;;;8.95;5.70;;;;;;;;;;5055786;28;20043;-70
2021/12/31 04:13:07;;;;;;;8.77;5.97;;;;;;;;;;5057718;28;20076;-70
2021/12/31 04:15:32;;;;;;;8.52;6.00;;;;;;;;;;5050418;28;20072;-69
2021/12/31 04:17:58;;;;;;;8.98;6.20;;;;;;;;;;5061100;28;20036;-68
2021/12/31 04:20:40;;;;;;;7.47;6.07;;;;;;;;;;5054391;28;20032;-70
2021/12/31 04:23:12;;;;;;;5.95;5.35;;;;;;;;;;5055432;28;20032;-69
2021/12/31 04:25:38;;;;;;;5.93;5.32;;;;;;;;;;5038794;28;20043;-71
2021/12/31 04:28:05;;;;;;;6.88;5.85;;;;;;;;;;5052260;28;20045;-69
2021/12/31 04:30:31;;;;;;;7.03;4.93;;;;;;;;;;5059615;28;20078;-68
2021/12/31 04:32:57;;;;;;;6.65;5.05;;;;;;;;;;5053993;28;20063;-70
2021/12/31 04:35:23;;;;;;;7.32;5.38;;;;;;;;;;5058589;28;20071;-66
2021/12/31 04:37:48;;;;;;;8.32;5.60;;;;;;;;;;5055414;28;20045;-70
2021/12/31 04:40:14;;;;;;;5.50;5.00;;;;;;;;;;5051030;28;20658;-70
2021/12/31 04:42:44;;;;;;;6.80;4.88;;;;;;;;;;5055735;28;20056;-69
2021/12/31 04:45:11;;;;;;;6.00;4.50;;;;;;;;;;5051982;28;20055;-70
2021/12/31 04:47:38;;;;;;;6.05;4.05;;;;;;;;;;5051883;28;20032;-70
2021/12/31 04:50:04;;;;;;;8.23;5.55;;;;;;;;;;5054149;28;20154;-69
2021/12/31 04:52:29;;;;;;;4.78;4.38;;;;;;;;;;5049118;28;20045;-72
2021/12/31 04:54:55;;;;;;;5.93;4.03;;;;;;;;;;5058430;28;20041;-71
2021/12/31 04:57:24;;;;;;;4.28;3.90;;;;;;;;;;5052693;28;20033;-67
2021/12/31 04:59:49;;;;;;;6.45;4.40;;;;;;;;;;5054190;28;20087;-69
2021/12/31 05:02:15;;;;;;;4.20;3.80;;;;;;;;;;5055637;28;20633;-68
2021/12/31 05:04:41;;;;;;;4.30;3.83;;;;;;;;;;5050338;28;20566;-68
2021/12/31 05:07:06;;;;;;;4.00;3.60;;;;;;;;;;5060858;28;20041;-67
2021/12/31 05:09:32;;;;;;;3.67;3.17;;;;;;;;;;5050417;28;20044;-68
2021/12/31 05:11:58;;;;;;;4.47;3.33;;;;;;;;;;5055867;28;20048;-70
2021/12/31 05:14:24;;;;;;;4.03;3.40;;;;;;;;;;5054734;28;20110;-68
2021/12/31 05:16:49;;;;;;;4.47;3.58;;;;;;;;;;5051809;28;20090;-69
2021/12/31 05:19:15;;;;;;;3.60;2.83;;;;;;;;;;5056532;28;20036;-69
2021/12/31 05:21:41;;;;;;;2.75;2.55;;;;;;;;;;5051621;28;20041;-68
2021/12/31 05:24:07;;;;;;;3.22;2.90;;;;;;;;;;5055981;28;20032;-69
2021/12/31 05:26:33;;;;;;;3.13;2.92;;;;;;;;;;5054013;28;20094;-69
2021/12/31 05:28:58;;;;;;;3.63;2.95;;;;;;;;;;5050524;28;20050;-70
2021/12/31 05:31:24;;;;;;;3.15;2.72;;;;;;;;;;5057770;28;20113;-71
2021/12/31 05:33:50;;;;;;;3.78;2.88;;;;;;;;;;5051277;28;20041;-69
2021/12/31 05:36:16;;;;;;;2.88;2.58;;;;;;;;;;5053625;28;20457;-70
2021/12/31 05:38:42;;;;;;;2.88;2.33;;;;;;;;;;5052215;28;20032;-69
2021/12/31 05:41:08;;;;;;;2.88;2.67;;;;;;;;;;5053014;28;20461;-71
2021/12/31 05:43:34;;;;;;;3.33;3.03;;;;;;;;;;5056947;28;20032;-69
2021/12/31 05:45:59;;;;;;;2.50;2.35;;;;;;;;;;5052559;28;20040;-70
2021/12/31 05:48:25;;;;;;;3.60;2.60;;;;;;;;;;5056617;28;20080;-69
2021/12/31 05:50:51;;;;;;;2.50;2.30;;;;;;;;;;5054457;28;20455;-69
2021/12/31 05:53:17;;;;;;;2.95;2.55;;;;;;;;;;5052538;28;20036;-69
2021/12/31 05:55:43;;;;;;;3.90;2.53;;;;;;;;;;5055386;28;20090;-69
2021/12/31 05:58:09;;;;;;;4.45;2.90;;;;;;;;;;5051609;28;20029;-69
2021/12/31 06:00:34;;;;;;;3.20;2.90;;;;;;;;;;5057012;28;20086;-67
2021/12/31 06:03:00;;;;;;;3.25;3.05;;;;;;;;;;5053993;28;20072;-68
2021/12/31 06:05:27;;;;;;;3.53;2.80;;;;;;;;;;5053894;28;20040;-68
2021/12/31 06:07:55;;;;;;;3.00;2.80;;;;;;;;;;5057205;28;20033;-69
2021/12/31 06:10:22;;;;;;;3.38;2.75;;;;;;;;;;5049403;28;20045;-69
2021/12/31 06:12:49;;;;;;;3.35;3.05;;;;;;;;;;5053855;28;20492;-70
2021/12/31 06:15:18;;;;;;;2.97;2.78;;;;;;;;;;5051991;28;20033;-69
2021/12/31 06:17:44;;;;;;;3.10;2.90;;;;;;;;;;5051039;28;20124;-66
2021/12/31 06:20:10;;;;;;;4.72;3.15;;;;;;;;;;5056199;28;20521;-68
2021/12/31 06:22:36;;;;;;;3.20;2.90;;;;;;;;;;5048137;28;20041;-68
2021/12/31 06:25:03;;;;;;;3.33;2.72;;;;;;;;;;5060431;28;20055;-68
2021/12/31 06:27:28;;;;;;;3.90;2.78;;;;;;;;;;5032118;28;20435;-68
2021/12/31 06:29:54;;;;;;;3.35;2.78;;;;;;;;;;5050244;28;20058;-69
2021/12/31 06:32:20;;;;;;;3.25;2.67;;;;;;;;;;5056765;28;20037;-70
2021/12/31 06:34:46;;;;;;;3.05;2.75;;;;;;;;;;5050554;28;20061;-70
2021/12/31 06:37:11;;;;;;;5.15;3.35;;;;;;;;;;5052155;28;20067;-67
2021/12/31 06:39:37;;;;;;;4.55;3.00;;;;;;;;;;5051571;28;20036;-67
2021/12/31 06:42:07;;;;;;;3.28;2.50;;;;;;;;;;5050949;28;20048;-70
2021/12/31 06:44:33;;;;;;;4.57;2.97;;;;;;;;;;5052059;28;20152;-69
2021/12/31 06:46:59;;;;;;;2.75;2.13;;;;;;;;;;5049620;28;20036;-70
2021/12/31 06:49:24;;;;;;;3.85;2.78;;;;;;;;;;5055078;28;20122;-69
2021/12/31 06:51:50;;;;;;;9.30;3.10;;;;;;;;;;5052886;28;20063;-70
2021/12/31 06:54:16;;;;;;;4.07;2.58;;;;;;;;;;5050873;28;20056;-70
2021/12/31 06:56:41;;;;;;;2.60;2.40;;;;;;;;;;5054987;28;20332;-70
2021/12/31 06:59:07;;;;;;;2.60;2.40;;;;;;;;;;5050832;28;20175;-70
2021/12/31 07:01:33;;;;;;;4.55;2.78;;;;;;;;;;5059489;28;20032;-69
2021/12/31 07:03:58;;;;;;;2.72;2.42;;;;;;;;;;5057029;28;20041;-70
2021/12/31 07:06:24;;;;;;;3.15;2.58;;;;;;;;;;5056408;28;20094;-70
2021/12/31 07:08:50;;;;;;;3.25;2.40;;;;;;;;;;5059564;28;20072;-68
2021/12/31 07:11:22;;;;;;;3.42;2.58;;;;;;;;;;5053795;28;20138;-68
2021/12/31 07:13:47;;;;;;;2.72;2.53;;;;;;;;;;5060010;28;20044;-69
2021/12/31 07:16:13;;;;;;;2.72;2.33;;;;;;;;;;5056474;28;20037;-71
2021/12/31 07:18:39;;;;;;;2.90;2.70;;;;;;;;;;5056578;28;20125;-70
2021/12/31 07:21:04;;;;;;;5.22;2.45;;;;;;;;;;5058677;28;20519;-68
2021/12/31 07:23:30;;;;;;;2.85;2.00;;;;;;;;;;5053561;28;20045;-67
2021/12/31 07:25:56;;;;;;;2.17;1.98;;;;;;;;;;5060694;28;20499;-70
2021/12/31 07:28:21;;;;;;;2.45;1.80;;;;;;;;;;5056250;28;20045;-69
2021/12/31 07:30:48;;;;;;;2.33;2.10;;;;;;;;;;5054927;28;20093;-66
2021/12/31 07:33:15;;;;;;;2.28;2.05;;;;;;;;;;5057339;28;20045;-64
2021/12/31 07:35:41;;;;;;;2.45;1.92;;;;;;;;;;5052329;28;20455;-63
2021/12/31 07:38:06;;;;;;;2.70;2.50;;;;;;;;;;5061606;28;20046;-65
2021/12/31 07:40:41;;;;;;;2.95;2.00;;;;;;;;;;5054766;28;20065;-66
2021/12/31 07:43:08;;;;;;;2.97;1.70;;;;;;;;;;5057310;28;20048;-64
2021/12/31 07:45:33;;;;;;;2.00;1.80;;;;;;;;;;5057637;28;20044;-64
2021/12/31 07:48:00;;;;;;;2.08;1.83;;;;;;;;;;5053903;28;20069;-63
2021/12/31 07:50:26;;;;;;;4.40;1.70;;;;;;;;;;5057763;28;20502;-63
2021/12/31 07:52:51;;;;;;;3.13;2.20;;;;;;;;;;5055440;28;20107;-67
2021/12/31 07:55:17;;;;;;;3.88;1.95;;;;;;;;;;5054094;28;20316;-62
2021/12/31 07:57:43;;;;;;;3.28;1.55;;;;;;;;;;5056554;28;20053;-62
2021/12/31 08:00:09;;;;;;;2.22;1.85;;;;;;;;;;5051383;28;20388;-61
2021/12/31 08:02:35;;;;;;;3.08;2.08;;;;;;;;;;5057019;28;20032;-63
2021/12/31 08:05:00;;;;;;;3.70;2.22;;;;;;;;;;5054317;28;20529;-61
2021/12/31 08:07:26;;;;;;;2.72;1.98;;;;;;;;;;5053665;28;20050;-61
2021/12/31 08:09:52;;;;;;;2.97;1.85;;;;;;;;;;5056785;28;20132;-63
2021/12/31 08:12:18;;;;;;;3.33;1.83;;;;;;;;;;5051698;28;20037;-61
2021/12/31 08:14:43;;;;;;;1.80;1.70;;;;;;;;;;5058680;28;20040;-59
2021/12/31 08:17:09;;;;;;;2.47;2.22;;;;;;;;;;5053952;28;20271;-62
2021/12/31 08:19:35;;;;;;;3.08;1.80;;;;;;;;;;5054232;28;20067;-62
2021/12/31 08:22:00;;;;;;;2.28;1.75;;;;;;;;;;5054055;28;20086;-61
2021/12/31 08:24:26;;;;;;;3.03;1.70;;;;;;;;;;5051937;28;20155;-64
2021/12/31 08:26:52;;;;;;;4.75;2.08;;;;;;;;;;5059977;28;20041;-60
2021/12/31 08:29:18;;;;;;;2.42;1.50;;;;;;;;;;5051905;28;20058;-60
2021/12/31 08:31:44;;;;;;;1.77;1.42;;;;;;;;;;5058501;28;20515;-59
2021/12/31 08:34:11;;;;;;;2.60;1.70;;;;;;;;;;5055078;28;20059;-61
2021/12/31 08:36:37;;;;;;;1.92;1.73;;;;;;;;;;5049136;28;20037;-61
2021/12/31 08:39:04;;;;;;;4.18;1.60;;;;;;;;;;5059646;28;20089;-61
2021/12/31 08:41:30;;;;;;;1.63;1.20;;;;;;;;;;5053718;28;20044;-61
2021/12/31 08:43:55;;;;;;;1.95;1.65;;;;;;;;;;5056835;28;20652;-62
2021/12/31 08:46:21;;;;;;;3.80;1.42;;;;;;;;;;5051496;28;20107;-60
2021/12/31 08:48:47;;;;;;;4.97;1.45;;;;;;;;;;5051500;28;20538;-62
2021/12/31 08:51:12;;;;;;;2.15;1.20;;;;;;;;;;5059598;28;20033;-62
2021/12/31 08:53:38;;;;;;;1.90;1.50;;;;;;;;;;5052526;28;20416;-62
2021/12/31 08:56:04;;;;;;;2.45;1.40;;;;;;;;;;5056950;28;20367;-58
2021/12/31 08:58:30;;;;;;;3.15;1.60;;;;;;;;;;5053576;28;20061;-60
2021/12/31 09:00:56;;;;;;;4.32;2.03;;;;;;;;;;5052924;28;20044;-58
2021/12/31 09:03:21;;;;;;;2.47;2.00;;;;;;;;;;5059917;28;20511;-63
2021/12/31 09:05:47;;;;;;;3.65;2.00;;;;;;;;;;5053084;28;20065;-62
2021/12/31 09:08:13;;;;;;;2.75;1.50;;;;;;;;;;5055966;28;20040;-59
2021/12/31 09:10:38;;;;;;;3.58;1.45;;;;;;;;;;5054901;28;20037;-60
2021/12/31 09:13:04;;;;;;;2.38;1.50;;;;;;;;;;5052601;28;20486;-60
2021/12/31 09:15:30;;;;;;;3.08;1.55;;;;;;;;;;5057142;28;20129;-62
2021/12/31 09:17:55;;;;;;;4.00;2.20;;;;;;;;;;5053237;28;20044;-60
2021/12/31 09:20:21;;;;;;;4.90;3.90;;;;;;;;;;5053278;28;20041;-61
2021/12/31 09:22:47;;;;;;;7.55;2.10;;;;;;;;;;5054647;28;20710;-61
2021/12/31 09:25:15;;;;;;;2.53;1.90;;;;;;;;;;5050070;28;20052;-57
2021/12/31 09:27:40;;;;;;;1.38;1.20;;;;;;;;;;5055836;28;20036;-63
2021/12/31 09:30:07;;;;;;;1.75;1.65;;;;;;;;;;5052828;28;20052;-56
2021/12/31 09:32:32;;;;;;;2.33;1.60;;;;;;;;;;5052228;28;20105;-60
2021/12/31 09:34:58;;;;;;;3.25;1.50;;;;;;;;;;5054032;28;20064;-54
2021/12/31 09:37:24;;;;;;;2.95;1.67;;;;;;;;;;5050278;28;20064;-60
2021/12/31 09:39:50;;;;;;;4.22;1.70;;;;;;;;;;5057642;28;20223;-61
2021/12/31 09:42:16;;;;;;;3.22;1.73;;;;;;;;;;5051703;28;20091;-59
2021/12/31 09:44:46;;;;;;;3.55;1.90;;;;;;;;;;5052382;28;20522;-56
2021/12/31 09:47:13;;;;;;;1.60;1.48;;;;;;;;;;5054244;28;20098;-59
2021/12/31 09:49:39;;;;;;;2.22;1.40;;;;;;;;;;5048479;28;20040;-57
2021/12/31 09:52:08;;;;;;;2.75;1.40;;;;;;;;;;5057041;28;20032;-61
2021/12/31 09:54:33;;;;;;;1.98;1.40;;;;;;;;;;5050615;28;20040;-56
2021/12/31 09:57:02;;;;;;;1.92;1.40;;;;;;;;;;5054705;28;20131;-54
2021/12/31 09:59:28;;;;;;;1.42;1.33;;;;;;;;;;5053093;28;20082;-55
2021/12/31 10:01:53;;;;;;;1.92;1.80;;;;;;;;;;5051182;28;20060;-56
2021/12/31 10:04:20;;;;;;;2.97;1.77;;;;;;;;;;5057447;28;20037;-59
2021/12/31 10:07:07;;;;;;;3.45;1.23;;;;;;;;;;5051469;28;20044;-62
2021/12/31 10:09:39;;;;;;;4.18;1.30;;;;;;;;;;5056011;28;20102;-59
2021/12/31 10:12:06;;;;;;;1.52;1.20;;;;;;;;;;5051442;28;20037;-57
2021/12/31 10:14:36;;;;;;;2.30;1.30;;;;;;;;;;5052089;28;20040;-58
2021/12/31 10:17:03;;;;;;;3.10;1.60;;;;;;;;;;5051168;28;20062;-59
2021/12/31 10:19:28;;;;;;;1.98;1.88;;;;;;;;;;5050061;28;20040;-62
2021/12/31 10:21:56;;;;;;;1.48;0.80;;;;;;;;;;5058671;28;20064;-58
2021/12/31 10:24:33;;;;;;;2.53;1.10;;;;;;;;;;5052039;28;20033;-61
2021/12/31 10:27:12;;;;;;;3.28;1.15;;;;;;;;;;5055196;28;20024;-62
2021/12/31 10:30:00;;;;;;;1.55;1.10;;;;;;;;;;5052711;28;20041;-61
2021/12/31 10:32:27;;;;;;;2.47;1.25;;;;;;;;;;5055114;28;20060;-57
2021/12/31 10:34:53;;;;;;;1.55;0.93;;;;;;;;;;5055648;28;20033;-59
2021/12/31 10:37:23;;;;;;;1.67;1.23;;;;;;;;;;5047228;28;20051;-59
2021/12/31 10:39:57;;;;;;;2.17;1.10;;;;;;;;;;5051013;28;20033;-60
2021/12/31 10:42:29;;;;;;;3.08;1.00;;;;;;;;;;5049108;28;20032;-58
2021/12/31 10:44:57;;;;;;;2.80;1.25;;;;;;;;;;5053225;28;20119;-57
2021/12/31 10:47:37;;;;;;;2.83;1.33;;;;;;;;;;5047288;28;20048;-60
2021/12/31 10:50:03;;;;;;;4.38;1.20;;;;;;;;;;5051516;28;20037;-57
2021/12/31 10:53:01;;;;;;;1.67;1.20;;;;;;;;;;5050208;28;20111;-56
2021/12/31 10:55:30;;;;;;;3.13;1.42;;;;;;;;;;5034066;28;20415;-61
2021/12/31 10:58:01;;;;;;;2.47;1.30;;;;;;;;;;5051694;28;20052;-55
2021/12/31 11:00:32;;;;;;;2.88;1.58;;;;;;;;;;5049773;28;20035;-57
2021/12/31 11:02:58;;;;;;;1.85;1.40;;;;;;;;;;5052778;28;20586;-56
2021/12/31 11:05:24;;;;;;;1.63;1.23;;;;;;;;;;5048328;28;20121;-58
2021/12/31 11:07:51;;;;;;;2.55;1.42;;;;;;;;;;5050143;28;20032;-60
2021/12/31 11:10:19;;;;;;;2.97;1.38;;;;;;;;;;5048611;28;20045;-58
2021/12/31 11:12:48;;;;;;;4.07;1.42;;;;;;;;;;5050119;28;20114;-56
2021/12/31 11:15:15;;;;;;;1.92;1.38;;;;;;;;;;5049957;28;20033;-58
2021/12/31 11:17:41;;;;;;;4.00;1.25;;;;;;;;;;5050791;28;20770;-59
2021/12/31 11:20:08;;;;;;;4.00;1.60;;;;;;;;;;5050438;28;20041;-59
2021/12/31 11:22:34;;;;;;;1.33;1.08;;;;;;;;;;5047272;28;20041;-58
2021/12/31 11:25:18;;;;;;;1.25;1.15;;;;;;;;;;5049656;28;20120;-58
2021/12/31 11:27:48;;;;;;;1.92;1.23;;;;;;;;;;5056600;28;20055;-58
2021/12/31 11:30:39;;;;;;;3.08;1.23;;;;;;;;;;5050843;28;20040;-60
2021/12/31 11:33:14;;;;;;;3.67;1.50;;;;;;;;;;5048996;28;20040;-59
2021/12/31 11:35:58;;;;;;;4.43;1.40;;;;;;;;;;5053365;28;20043;-58
2021/12/31 11:38:26;;;;;;;1.95;1.23;;;;;;;;;;5049160;28;20114;-61
2021/12/31 11:41:03;;;;;;;2.42;1.40;;;;;;;;;;5057115;28;20102;-58
2021/12/31 11:43:30;;;;;;;3.28;1.52;;;;;;;;;;5048544;28;20037;-61
2021/12/31 11:48:48;;;;;;;7.35;3.75;;;;;;;;;;5055390;28;20063;-58
2021/12/31 11:51:22;;;;;;;3.45;1.33;;;;;;;;;;5055220;28;20058;-56
2021/12/31 11:54:00;;;;;;;2.85;1.02;;;;;;;;;;5058475;28;20044;-59
2021/12/31 11:56:34;;;;;;;1.55;1.10;;;;;;;;;;5052980;28;20529;-59
2021/12/31 11:59:06;;;;;;;4.18;1.65;;;;;;;;;;5060377;28;20079;-61
2021/12/31 12:01:37;;;;;;;3.25;1.30;;;;;;;;;;5054675;28;20037;-55
2021/12/31 12:04:28;;;;;;;1.60;1.00;;;;;;;;;;5057915;28;20139;-59
2021/12/31 12:07:10;;;;;;;3.20;1.10;;;;;;;;;;5055880;28;20036;-62
2021/12/31 12:09:35;;;;;;;2.45;1.20;;;;;;;;;;5057943;28;20028;-59
2021/12/31 12:12:33;;;;;;;2.45;1.10;;;;;;;;;;5057934;28;20492;-57
2021/12/31 12:15:00;;;;;;;2.70;1.10;;;;;;;;;;5053998;28;20041;-59
2021/12/31 12:17:29;;;;;;;3.15;1.25;;;;;;;;;;5060272;28;20388;-57
2021/12/31 12:19:57;;;;;;;2.80;1.10;;;;;;;;;;5054445;28;20601;-58
2021/12/31 12:22:27;;;;;;;3.63;1.50;;;;;;;;;;5058914;28;20045;-59
2021/12/31 12:24:54;;;;;;;1.92;1.20;;;;;;;;;;5056355;28;20045;-60
2021/12/31 12:27:22;;;;;;;1.10;1.00;;;;;;;;;;5050724;28;20029;-62
2021/12/31 12:29:48;;;;;;;2.58;1.10;;;;;;;;;;5058311;28;20045;-61
2021/12/31 12:32:16;;;;;;;2.75;1.50;;;;;;;;;;5053260;28;20362;-59
2021/12/31 12:34:42;;;;;;;4.60;1.30;;;;;;;;;;5053727;28;20102;-57
2021/12/31 12:37:08;;;;;;;3.75;1.20;;;;;;;;;;5053254;28;20032;-59
2021/12/31 12:39:34;;;;;;;1.33;1.00;;;;;;;;;;5052856;28;20048;-56
2021/12/31 12:42:00;;;;;;;2.08;1.02;;;;;;;;;;5059229;28;20041;-59
2021/12/31 12:44:26;;;;;;;2.92;1.45;;;;;;;;;;5052961;28;20454;-58
2021/12/31 12:46:59;;;;;;;1.25;1.10;;;;;;;;;;5054210;28;20079;-60
2021/12/31 12:49:26;;;;;;;1.10;0.73;;;;;;;;;;5055144;28;20064;-60
2021/12/31 12:51:54;;;;;;;2.70;1.40;;;;;;;;;;5051624;28;20044;-59
2021/12/31 12:54:24;;;;;;;2.58;1.77;;;;;;;;;;5057911;28;20082;-61
2021/12/31 12:56:51;;;;;;;4.72;2.97;;;;;;;;;;5051691;28;20432;-60
2021/12/31 12:59:21;;;;;;;3.15;2.20;;;;;;;;;;5055689;28;20063;-59
2021/12/31 13:01:48;;;;;;;3.00;1.50;;;;;;;;;;5051887;28;20583;-58
2021/12/31 13:04:16;;;;;;;8.20;4.47;;;;;;;;;;5051176;28;20041;-58
2021/12/31 13:06:44;;;;;;;8.80;2.58;;;;;;;;;;5056396;28;20029;-59
2021/12/31 13:09:15;;;;;;;3.78;2.20;;;;;;;;;;5051312;28;20525;-58
2021/12/31 13:11:49;;;;;;;1.70;1.52;;;;;;;;;;5057829;28;20511;-60
2021/12/31 13:14:19;;;;;;;3.92;1.50;;;;;;;;;;5053463;28;20041;-57
2021/12/31 13:16:48;;;;;;;1.90;1.20;;;;;;;;;;5056437;28;20043;-53
2021/12/31 13:19:15;;;;;;;3.25;1.60;;;;;;;;;;5056893;28;20846;-56
2021/12/31 13:21:42;;;;;;;2.33;1.60;;;;;;;;;;5051105;28;20056;-61
2021/12/31 13:24:08;;;;;;;1.52;1.10;;;;;;;;;;5060565;28;20036;-60
2021/12/31 13:26:35;;;;;;;3.90;1.58;;;;;;;;;;5054287;28;20040;-59
2021/12/31 13:29:04;;;;;;;2.28;1.85;;;;;;;;;;5057597;28;20056;-60
2021/12/31 13:31:38;;;;;;;3.47;2.30;;;;;;;;;;5051747;28;20102;-59
2021/12/31 13:34:15;;;;;;;3.78;2.25;;;;;;;;;;5050097;28;20090;-60
2021/12/31 13:36:59;;;;;;;5.13;3.28;;;;;;;;;;5057676;28;20388;-60
2021/12/31 13:39:31;;;;;;;5.32;3.22;;;;;;;;;;5050962;28;20032;-57
2021/12/31 13:42:03;;;;;;;4.40;1.83;;;;;;;;;;5061202;28;20086;-58
2021/12/31 13:44:33;;;;;;;6.97;2.15;;;;;;;;;;5055290;28;20074;-60
2021/12/31 13:47:13;;;;;;;2.80;2.00;;;;;;;;;;5058072;28;20041;-58
2021/12/31 13:49:42;;;;;;;2.72;1.83;;;;;;;;;;5053505;28;20036;-59
2021/12/31 13:52:25;;;;;;;2.50;1.40;;;;;;;;;;5053995;28;20040;-61
2021/12/31 13:54:53;;;;;;;2.83;1.60;;;;;;;;;;5058874;28;20060;-59
2021/12/31 13:57:27;;;;;;;2.70;1.75;;;;;;;;;;5053889;28;20535;-58
2021/12/31 13:59:54;;;;;;;1.75;1.63;;;;;;;;;;5056267;28;20505;-60
2021/12/31 14:02:25;;;;;;;2.42;1.35;;;;;;;;;;5052798;28;20095;-56
2021/12/31 14:04:53;;;;;;;3.90;1.58;;;;;;;;;;5054163;28;20429;-61
2021/12/31 14:07:37;;;;;;;2.65;1.75;;;;;;;;;;5052822;28;20033;-56
2021/12/31 14:10:06;;;;;;;3.03;2.10;;;;;;;;;;5048185;28;20139;-60
2021/12/31 14:13:02;;;;;;;1.25;0.88;;;;;;;;;;5054082;28;20040;-57
2021/12/31 14:15:34;;;;;;;2.47;1.10;;;;;;;;;;5050253;28;20111;-59
2021/12/31 14:18:17;;;;;;;2.30;1.20;;;;;;;;;;5053732;28;20072;-59
2021/12/31 14:20:45;;;;;;;1.10;1.00;;;;;;;;;;5052720;28;20037;-58
2021/12/31 14:23:12;;;;;;;1.60;1.42;;;;;;;;;;5050184;28;20534;-56
2021/12/31 14:25:40;;;;;;;2.50;1.60;;;;;;;;;;5053022;28;20040;-60
2021/12/31 14:28:07;;;;;;;2.70;1.23;;;;;;;;;;5050792;28;20029;-58
2021/12/31 14:30:33;;;;;;;1.60;1.38;;;;;;;;;;5052910;28;20124;-60
2021/12/31 14:33:00;;;;;;;3.30;1.73;;;;;;;;;;5051930;28;20040;-58
2021/12/31 14:35:34;;;;;;;1.67;1.48;;;;;;;;;;5051881;28;20565;-53
2021/12/31 14:38:00;;;;;;;1.17;1.08;;;;;;;;;;5053685;28;20040;-58
2021/12/31 14:40:26;;;;;;;2.03;1.30;;;;;;;;;;5049530;28;20400;-56
2021/12/31 14:42:53;;;;;;;4.55;2.05;;;;;;;;;;5055267;28;20107;-58
2021/12/31 14:45:19;;;;;;;1.92;1.30;;;;;;;;;;5050368;28;20043;-57
2021/12/31 14:47:45;;;;;;;2.33;1.40;;;;;;;;;;5050088;28;20040;-59
2021/12/31 14:50:13;;;;;;;1.30;1.20;;;;;;;;;;5051887;28;20068;-59
2021/12/31 14:52:41;;;;;;;2.03;1.48;;;;;;;;;;5047936;28;20064;-58